sensor_id;sensor_type;location;lat;lon;timestamp;temperature;humidity
4293;DHT22;2160;51.172;6.808;2022-10-22T04:02:34;18.20;99.90
4293;DHT22;2160;51.172;6.808;2022-10-22T04:05:01;18.20;99.90
4293;DHT22;2160;51.172;6.808;2022-10-22T04:07:28;18.20;99.90
4293;DHT22;2160;51.172;6.808;2022-10-22T04:09:55;18.20;99.90
4293;DHT22;2160;51.172;6.808;2022-10-22T04:12:22;18.20;99.90
4293;DHT22;2160;51.172;6.808;2022-10-22T04:14:49;18.20;99.90
4293;DHT22;2160;51.172;6.808;2022-10-22T04:17:16;18.30;99.90
4293;DHT22;2160;51.172;6.808;2022-10-22T04:19:44;18.30;99.90
4293;DHT22;2160;51.172;6.808;2022-10-22T04:22:11;18.30;99.90
4293;DHT22;2160;51.172;6.808;2022-10-22T04:24:38;18.30;99.90
4293;DHT22;2160;51.172;6.808;2022-10-22T04:27:05;18.30;99.90
4293;DHT22;2160;51.172;6.808;2022-10-22T04:29:32;18.50;99.90
4293;DHT22;2160;51.172;6.808;2022-10-22T04:31:59;18.20;99.90
4293;DHT22;2160;51.172;6.808;2022-10-22T04:34:26;18.30;99.90
4293;DHT22;2160;51.172;6.808;2022-10-22T04:36:55;18.20;99.90
4293;DHT22;2160;51.172;6.808;2022-10-22T04:39:22;18.10;99.90
4293;DHT22;2160;51.172;6.808;2022-10-22T04:41:49;18.30;99.90
4293;DHT22;2160;51.172;6.808;2022-10-22T04:44:16;18.00;99.90
4293;DHT22;2160;51.172;6.808;2022-10-22T04:46:43;18.00;99.90
4293;DHT22;2160;51.172;6.808;2022-10-22T04:49:10;18.10;99.90
4293;DHT22;2160;51.172;6.808;2022-10-22T04:51:37;18.10;99.90
4293;DHT22;2160;51.172;6.808;2022-10-22T04:54:05;18.10;99.90
4293;DHT22;2160;51.172;6.808;2022-10-22T04:56:32;18.10;99.90
4293;DHT22;2160;51.172;6.808;2022-10-22T04:59:01;18.10;99.90
4293;DHT22;2160;51.172;6.808;2022-10-22T05:01:29;18.10;99.90
4293;DHT22;2160;51.172;6.808;2022-10-22T05:03:58;18.20;99.90
4293;DHT22;2160;51.172;6.808;2022-10-22T05:06:26;18.00;99.90
4293;DHT22;2160;51.172;6.808;2022-10-22T05:08:54;18.20;99.90
4293;DHT22;2160;51.172;6.808;2022-10-22T05:11:25;18.10;99.90
4293;DHT22;2160;51.172;6.808;2022-10-22T05:13:54;18.10;99.90
4293;DHT22;2160;51.172;6.808;2022-10-22T05:16:22;18.10;99.90
4293;DHT22;2160;51.172;6.808;2022-10-22T05:18:49;18.10;99.90
4293;DHT22;2160;51.172;6.808;2022-10-22T05:21:18;18.10;99.90
4293;DHT22;2160;51.172;6.808;2022-10-22T05:23:46;18.10;99.90
4293;DHT22;2160;51.172;6.808;2022-10-22T05:26:17;18.10;99.90
4293;DHT22;2160;51.172;6.808;2022-10-22T05:28:45;18.10;99.90
4293;DHT22;2160;51.172;6.808;2022-10-22T05:31:13;18.00;99.90
4293;DHT22;2160;51.172;6.808;2022-10-22T05:33:41;18.00;99.90
4293;DHT22;2160;51.172;6.808;2022-10-22T05:36:12;17.90;99.90
4293;DHT22;2160;51.172;6.808;2022-10-22T05:38:40;17.90;99.90
4293;DHT22;2160;51.172;6.808;2022-10-22T05:41:08;17.80;99.90
4293;DHT22;2160;51.172;6.808;2022-10-22T05:43:36;17.90;99.90
4293;DHT22;2160;51.172;6.808;2022-10-22T05:46:05;17.90;99.90
4293;DHT22;2160;51.172;6.808;2022-10-22T05:48:33;17.80;99.90
4293;DHT22;2160;51.172;6.808;2022-10-22T05:51:01;17.70;99.90
4293;DHT22;2160;51.172;6.808;2022-10-22T05:53:30;17.60;99.90
4293;DHT22;2160;51.172;6.808;2022-10-22T05:56:01;17.50;99.90
4293;DHT22;2160;51.172;6.808;2022-10-22T05:58:28;17.40;99.90
4293;DHT22;2160;51.172;6.808;2022-10-22T06:01:00;17.50;99.90
4293;DHT22;2160;51.172;6.808;2022-10-22T06:03:28;17.60;99.90
4293;DHT22;2160;51.172;6.808;2022-10-22T06:05:58;17.60;99.90
4293;DHT22;2160;51.172;6.808;2022-10-22T06:08:26;17.60;99.90
4293;DHT22;2160;51.172;6.808;2022-10-22T06:10:53;17.60;99.90
4293;DHT22;2160;51.172;6.808;2022-10-22T06:13:20;17.60;99.90
4293;DHT22;2160;51.172;6.808;2022-10-22T06:15:48;17.60;99.90
4293;DHT22;2160;51.172;6.808;2022-10-22T06:18:15;17.60;99.90
4293;DHT22;2160;51.172;6.808;2022-10-22T06:20:43;17.60;99.90
4293;DHT22;2160;51.172;6.808;2022-10-22T06:23:10;17.60;99.90
4293;DHT22;2160;51.172;6.808;2022-10-22T06:25:37;17.70;99.90
4293;DHT22;2160;51.172;6.808;2022-10-22T06:28:04;17.60;99.90
4293;DHT22;2160;51.172;6.808;2022-10-22T06:30:31;17.60;99.90
4293;DHT22;2160;51.172;6.808;2022-10-22T06:32:58;17.70;99.90
4293;DHT22;2160;51.172;6.808;2022-10-22T06:35:24;17.50;99.90
4293;DHT22;2160;51.172;6.808;2022-10-22T06:37:53;17.60;99.90
4293;DHT22;2160;51.172;6.808;2022-10-22T06:40:20;17.50;99.90
4293;DHT22;2160;51.172;6.808;2022-10-22T06:42:47;17.70;99.90
4293;DHT22;2160;51.172;6.808;2022-10-22T06:45:14;17.50;99.90
4293;DHT22;2160;51.172;6.808;2022-10-22T06:47:41;17.50;99.90
4293;DHT22;2160;51.172;6.808;2022-10-22T06:50:08;17.60;99.90
4293;DHT22;2160;51.172;6.808;2022-10-22T06:52:35;17.70;99.90
4293;DHT22;2160;51.172;6.808;2022-10-22T06:55:04;17.80;99.90
4293;DHT22;2160;51.172;6.808;2022-10-22T06:57:31;17.80;99.90
4293;DHT22;2160;51.172;6.808;2022-10-22T06:59:58;17.70;99.90
4293;DHT22;2160;51.172;6.808;2022-10-22T07:02:25;17.80;99.90
4293;DHT22;2160;51.172;6.808;2022-10-22T07:04:52;17.90;99.90
4293;DHT22;2160;51.172;6.808;2022-10-22T07:07:19;18.00;99.90
4293;DHT22;2160;51.172;6.808;2022-10-22T07:09:46;18.00;99.90
4293;DHT22;2160;51.172;6.808;2022-10-22T07:12:15;18.10;99.90
4293;DHT22;2160;51.172;6.808;2022-10-22T07:14:42;18.20;99.90
4293;DHT22;2160;51.172;6.808;2022-10-22T07:17:09;18.20;99.90
4293;DHT22;2160;51.172;6.808;2022-10-22T07:19:36;18.10;99.90
4293;DHT22;2160;51.172;6.808;2022-10-22T07:22:03;18.10;99.90
4293;DHT22;2160;51.172;6.808;2022-10-22T07:24:30;18.10;99.90
4293;DHT22;2160;51.172;6.808;2022-10-22T07:26:57;18.00;99.90
4293;DHT22;2160;51.172;6.808;2022-10-22T07:29:25;18.00;99.90
4293;DHT22;2160;51.172;6.808;2022-10-22T07:31:53;18.10;99.90
4293;DHT22;2160;51.172;6.808;2022-10-22T07:34:19;18.20;99.90
4293;DHT22;2160;51.172;6.808;2022-10-22T07:36:46;18.10;99.90
4293;DHT22;2160;51.172;6.808;2022-10-22T07:39:13;18.00;99.90
4293;DHT22;2160;51.172;6.808;2022-10-22T07:41:40;18.10;99.90
4293;DHT22;2160;51.172;6.808;2022-10-22T07:44:07;18.50;99.90
4293;DHT22;2160;51.172;6.808;2022-10-22T07:46:35;18.10;99.90
4293;DHT22;2160;51.172;6.808;2022-10-22T07:49:02;18.30;99.90
4293;DHT22;2160;51.172;6.808;2022-10-22T07:51:29;18.30;99.90
4293;DHT22;2160;51.172;6.808;2022-10-22T07:53:56;18.30;99.90
4293;DHT22;2160;51.172;6.808;2022-10-22T07:56:23;18.40;99.90
4293;DHT22;2160;51.172;6.808;2022-10-22T07:58:49;18.40;99.90
4293;DHT22;2160;51.172;6.808;2022-10-22T08:01:16;18.40;99.90
4293;DHT22;2160;51.172;6.808;2022-10-22T08:03:45;18.50;99.90
4293;DHT22;2160;51.172;6.808;2022-10-22T08:06:12;18.40;99.90
4293;DHT22;2160;51.172;6.808;2022-10-22T08:08:39;18.30;99.90
4293;DHT22;2160;51.172;6.808;2022-10-22T08:11:06;18.30;99.90
4293;DHT22;2160;51.172;6.808;2022-10-22T08:13:33;18.40;99.90
4293;DHT22;2160;51.172;6.808;2022-10-22T08:16:01;18.40;99.90
4293;DHT22;2160;51.172;6.808;2022-10-22T08:18:28;18.40;99.90
4293;DHT22;2160;51.172;6.808;2022-10-22T08:20:57;18.50;99.90
4293;DHT22;2160;51.172;6.808;2022-10-22T08:23:23;18.50;99.90
4293;DHT22;2160;51.172;6.808;2022-10-22T08:25:50;18.60;99.90
4293;DHT22;2160;51.172;6.808;2022-10-22T08:28:17;18.60;99.90
4293;DHT22;2160;51.172;6.808;2022-10-22T08:30:44;18.70;99.90
4293;DHT22;2160;51.172;6.808;2022-10-22T08:33:13;18.40;99.90
4293;DHT22;2160;51.172;6.808;2022-10-22T08:35:40;18.50;99.90
4293;DHT22;2160;51.172;6.808;2022-10-22T08:38:08;18.50;99.90
4293;DHT22;2160;51.172;6.808;2022-10-22T08:40:37;18.50;99.90
4293;DHT22;2160;51.172;6.808;2022-10-22T08:43:18;18.60;99.90
4293;DHT22;2160;51.172;6.808;2022-10-22T08:45:53;18.60;99.90
4293;DHT22;2160;51.172;6.808;2022-10-22T08:48:39;18.50;99.90
4293;DHT22;2160;51.172;6.808;2022-10-22T08:51:12;18.60;99.90
4293;DHT22;2160;51.172;6.808;2022-10-22T08:53:50;18.60;99.90
4293;DHT22;2160;51.172;6.808;2022-10-22T08:56:21;18.60;99.90
4293;DHT22;2160;51.172;6.808;2022-10-22T08:58:55;18.60;99.90
4293;DHT22;2160;51.172;6.808;2022-10-22T09:01:32;18.70;99.90
4293;DHT22;2160;51.172;6.808;2022-10-22T09:04:04;18.80;99.90
4293;DHT22;2160;51.172;6.808;2022-10-22T09:06:34;18.80;99.90
4293;DHT22;2160;51.172;6.808;2022-10-22T09:09:11;18.70;99.90
4293;DHT22;2160;51.172;6.808;2022-10-22T09:11:43;18.90;99.90
4293;DHT22;2160;51.172;6.808;2022-10-22T09:14:13;18.70;99.90
4293;DHT22;2160;51.172;6.808;2022-10-22T09:17:04;18.80;99.90
4293;DHT22;2160;51.172;6.808;2022-10-22T09:19:36;18.80;99.90
4293;DHT22;2160;51.172;6.808;2022-10-22T09:22:15;18.90;99.90
4293;DHT22;2160;51.172;6.808;2022-10-22T09:24:46;19.10;99.90
4293;DHT22;2160;51.172;6.808;2022-10-22T09:27:16;19.10;99.90
4293;DHT22;2160;51.172;6.808;2022-10-22T09:29:43;19.00;99.90
4293;DHT22;2160;51.172;6.808;2022-10-22T09:32:11;19.00;99.90
4293;DHT22;2160;51.172;6.808;2022-10-22T09:34:38;19.10;99.90
4293;DHT22;2160;51.172;6.808;2022-10-22T09:37:07;19.00;99.90
4293;DHT22;2160;51.172;6.808;2022-10-22T09:39:37;19.10;99.90
4293;DHT22;2160;51.172;6.808;2022-10-22T09:42:06;19.30;99.90
4293;DHT22;2160;51.172;6.808;2022-10-22T09:44:35;19.30;99.90
4293;DHT22;2160;51.172;6.808;2022-10-22T09:47:04;19.30;99.90
4293;DHT22;2160;51.172;6.808;2022-10-22T09:49:33;19.30;99.90
4293;DHT22;2160;51.172;6.808;2022-10-22T09:52:01;19.40;99.90
4293;DHT22;2160;51.172;6.808;2022-10-22T09:54:37;19.30;99.90
4293;DHT22;2160;51.172;6.808;2022-10-22T09:57:13;19.20;99.90
4293;DHT22;2160;51.172;6.808;2022-10-22T09:59:43;19.20;99.90
4293;DHT22;2160;51.172;6.808;2022-10-22T10:02:12;19.20;99.90
4293;DHT22;2160;51.172;6.808;2022-10-22T10:04:40;19.30;99.90
4293;DHT22;2160;51.172;6.808;2022-10-22T10:07:15;19.20;99.90
4293;DHT22;2160;51.172;6.808;2022-10-22T10:09:42;19.10;99.90
4293;DHT22;2160;51.172;6.808;2022-10-22T10:12:23;19.10;99.90
4293;DHT22;2160;51.172;6.808;2022-10-22T10:14:59;19.10;99.90
4293;DHT22;2160;51.172;6.808;2022-10-22T10:17:32;19.10;99.90
4293;DHT22;2160;51.172;6.808;2022-10-22T10:20:14;19.20;99.90
4293;DHT22;2160;51.172;6.808;2022-10-22T10:22:53;19.30;99.90
4293;DHT22;2160;51.172;6.808;2022-10-22T10:25:32;19.20;99.90
4293;DHT22;2160;51.172;6.808;2022-10-22T10:28:14;19.50;99.90
4293;DHT22;2160;51.172;6.808;2022-10-22T10:30:47;19.40;99.90
4293;DHT22;2160;51.172;6.808;2022-10-22T10:33:26;19.50;99.90
4293;DHT22;2160;51.172;6.808;2022-10-22T10:35:59;19.50;99.90
4293;DHT22;2160;51.172;6.808;2022-10-22T10:38:38;19.50;99.90
4293;DHT22;2160;51.172;6.808;2022-10-22T10:41:16;19.40;99.90
4293;DHT22;2160;51.172;6.808;2022-10-22T10:43:56;19.50;99.90
4293;DHT22;2160;51.172;6.808;2022-10-22T10:46:31;19.80;99.90
4293;DHT22;2160;51.172;6.808;2022-10-22T10:49:07;19.50;99.90
4293;DHT22;2160;51.172;6.808;2022-10-22T10:51:40;19.40;99.90
4293;DHT22;2160;51.172;6.808;2022-10-22T10:54:35;19.40;99.90
4293;DHT22;2160;51.172;6.808;2022-10-22T10:57:12;19.50;99.90
4293;DHT22;2160;51.172;6.808;2022-10-22T11:00:09;19.50;99.90
4293;DHT22;2160;51.172;6.808;2022-10-22T11:05:42;19.50;99.90
4293;DHT22;2160;51.172;6.808;2022-10-22T11:08:13;19.60;99.90
4293;DHT22;2160;51.172;6.808;2022-10-22T11:10:44;19.50;99.90
4293;DHT22;2160;51.172;6.808;2022-10-22T11:13:17;19.40;99.90
4293;DHT22;2160;51.172;6.808;2022-10-22T11:15:49;19.50;99.90
4293;DHT22;2160;51.172;6.808;2022-10-22T11:18:23;19.40;99.90
4293;DHT22;2160;51.172;6.808;2022-10-22T11:21:01;19.50;99.90
4293;DHT22;2160;51.172;6.808;2022-10-22T11:23:33;19.50;99.90
4293;DHT22;2160;51.172;6.808;2022-10-22T11:26:04;19.60;99.90
4293;DHT22;2160;51.172;6.808;2022-10-22T11:28:38;19.50;99.90
4293;DHT22;2160;51.172;6.808;2022-10-22T11:31:13;19.50;99.90
4293;DHT22;2160;51.172;6.808;2022-10-22T11:33:46;19.60;99.90
4293;DHT22;2160;51.172;6.808;2022-10-22T11:36:15;19.40;99.90
4293;DHT22;2160;51.172;6.808;2022-10-22T11:38:44;19.50;99.90
4293;DHT22;2160;51.172;6.808;2022-10-22T11:41:12;19.60;99.90
4293;DHT22;2160;51.172;6.808;2022-10-22T11:43:55;19.50;99.90
4293;DHT22;2160;51.172;6.808;2022-10-22T11:46:37;19.60;99.90
4293;DHT22;2160;51.172;6.808;2022-10-22T11:49:16;19.40;99.90
4293;DHT22;2160;51.172;6.808;2022-10-22T11:51:45;19.50;99.90
4293;DHT22;2160;51.172;6.808;2022-10-22T11:54:29;19.50;99.90
4293;DHT22;2160;51.172;6.808;2022-10-22T11:57:18;19.60;99.90
4293;DHT22;2160;51.172;6.808;2022-10-22T11:59:48;19.60;99.90
4293;DHT22;2160;51.172;6.808;2022-10-22T12:02:30;19.60;99.90
4293;DHT22;2160;51.172;6.808;2022-10-22T12:08:20;19.60;99.90
4293;DHT22;2160;51.172;6.808;2022-10-22T12:10:54;19.70;99.90
4293;DHT22;2160;51.172;6.808;2022-10-22T12:13:23;19.80;99.90
4293;DHT22;2160;51.172;6.808;2022-10-22T12:15:53;19.90;99.90
4293;DHT22;2160;51.172;6.808;2022-10-22T12:18:24;19.90;99.90
4293;DHT22;2160;51.172;6.808;2022-10-22T12:20:52;19.90;99.90
4293;DHT22;2160;51.172;6.808;2022-10-22T12:23:27;19.80;99.90
4293;DHT22;2160;51.172;6.808;2022-10-22T12:25:55;19.80;99.90
4293;DHT22;2160;51.172;6.808;2022-10-22T12:28:22;19.80;99.90
4293;DHT22;2160;51.172;6.808;2022-10-22T12:30:49;19.70;99.90
4293;DHT22;2160;51.172;6.808;2022-10-22T12:33:18;19.80;99.90
4293;DHT22;2160;51.172;6.808;2022-10-22T12:35:48;19.90;99.90
4293;DHT22;2160;51.172;6.808;2022-10-22T12:38:20;19.90;99.90
4293;DHT22;2160;51.172;6.808;2022-10-22T12:40:48;19.90;99.90
4293;DHT22;2160;51.172;6.808;2022-10-22T12:43:17;19.90;99.90
4293;DHT22;2160;51.172;6.808;2022-10-22T12:45:46;20.00;99.90
4293;DHT22;2160;51.172;6.808;2022-10-22T12:48:16;20.00;99.90
4293;DHT22;2160;51.172;6.808;2022-10-22T12:50:47;20.10;99.90
4293;DHT22;2160;51.172;6.808;2022-10-22T12:53:17;20.00;99.90
4293;DHT22;2160;51.172;6.808;2022-10-22T12:55:45;20.10;99.90
4293;DHT22;2160;51.172;6.808;2022-10-22T12:58:16;20.40;99.90
4293;DHT22;2160;51.172;6.808;2022-10-22T13:00:44;20.40;99.90
4293;DHT22;2160;51.172;6.808;2022-10-22T13:03:25;20.40;99.90
4293;DHT22;2160;51.172;6.808;2022-10-22T13:05:53;20.50;99.90
4293;DHT22;2160;51.172;6.808;2022-10-22T13:08:22;20.30;99.90
4293;DHT22;2160;51.172;6.808;2022-10-22T13:10:51;20.30;99.90
4293;DHT22;2160;51.172;6.808;2022-10-22T13:13:30;20.30;99.90
4293;DHT22;2160;51.172;6.808;2022-10-22T13:16:15;20.20;99.90
4293;DHT22;2160;51.172;6.808;2022-10-22T13:18:43;20.30;99.90
4293;DHT22;2160;51.172;6.808;2022-10-22T13:21:23;20.50;99.90
4293;DHT22;2160;51.172;6.808;2022-10-22T13:23:56;20.60;99.90
4293;DHT22;2160;51.172;6.808;2022-10-22T13:26:29;20.50;99.90
4293;DHT22;2160;51.172;6.808;2022-10-22T13:28:57;20.50;99.90
4293;DHT22;2160;51.172;6.808;2022-10-22T13:31:27;20.70;99.90
4293;DHT22;2160;51.172;6.808;2022-10-22T13:34:02;20.60;99.90
4293;DHT22;2160;51.172;6.808;2022-10-22T13:36:32;20.80;99.90
4293;DHT22;2160;51.172;6.808;2022-10-22T13:38:59;21.10;99.90
4293;DHT22;2160;51.172;6.808;2022-10-22T13:41:28;21.10;99.90
4293;DHT22;2160;51.172;6.808;2022-10-22T13:43:56;21.10;99.90
4293;DHT22;2160;51.172;6.808;2022-10-22T13:46:24;21.10;99.90
4293;DHT22;2160;51.172;6.808;2022-10-22T13:48:53;21.20;99.90
4293;DHT22;2160;51.172;6.808;2022-10-22T13:51:23;20.90;99.90
4293;DHT22;2160;51.172;6.808;2022-10-22T13:53:53;20.80;99.90
4293;DHT22;2160;51.172;6.808;2022-10-22T13:56:21;20.80;99.90
4293;DHT22;2160;51.172;6.808;2022-10-22T13:58:49;20.80;99.90
4293;DHT22;2160;51.172;6.808;2022-10-22T14:01:19;20.90;99.90
4293;DHT22;2160;51.172;6.808;2022-10-22T14:03:47;21.00;99.90
4293;DHT22;2160;51.172;6.808;2022-10-22T14:06:16;21.20;99.90
4293;DHT22;2160;51.172;6.808;2022-10-22T14:08:46;21.10;99.90
4293;DHT22;2160;51.172;6.808;2022-10-22T14:11:16;21.00;99.90
4293;DHT22;2160;51.172;6.808;2022-10-22T14:13:43;21.10;99.90
4293;DHT22;2160;51.172;6.808;2022-10-22T14:16:15;21.20;99.90
4293;DHT22;2160;51.172;6.808;2022-10-22T14:18:44;21.20;99.90
4293;DHT22;2160;51.172;6.808;2022-10-22T14:21:12;21.10;99.90
4293;DHT22;2160;51.172;6.808;2022-10-22T14:23:41;21.20;99.90
4293;DHT22;2160;51.172;6.808;2022-10-22T14:26:14;21.10;99.90
4293;DHT22;2160;51.172;6.808;2022-10-22T14:28:46;21.10;99.90
4293;DHT22;2160;51.172;6.808;2022-10-22T14:31:13;21.20;99.90
4293;DHT22;2160;51.172;6.808;2022-10-22T14:33:41;21.00;99.90
4293;DHT22;2160;51.172;6.808;2022-10-22T14:36:09;21.10;99.90
4293;DHT22;2160;51.172;6.808;2022-10-22T14:38:36;21.00;99.90
4293;DHT22;2160;51.172;6.808;2022-10-22T14:41:14;21.10;99.90
4293;DHT22;2160;51.172;6.808;2022-10-22T14:43:42;21.10;99.90
4293;DHT22;2160;51.172;6.808;2022-10-22T14:46:12;21.00;99.90
4293;DHT22;2160;51.172;6.808;2022-10-22T14:48:40;20.90;99.90
4293;DHT22;2160;51.172;6.808;2022-10-22T14:51:11;21.00;99.90
4293;DHT22;2160;51.172;6.808;2022-10-22T14:53:39;21.10;99.90
4293;DHT22;2160;51.172;6.808;2022-10-22T14:56:08;21.10;99.90
4293;DHT22;2160;51.172;6.808;2022-10-22T14:58:39;21.00;99.90
4293;DHT22;2160;51.172;6.808;2022-10-22T15:01:19;21.00;99.90
4293;DHT22;2160;51.172;6.808;2022-10-22T15:03:50;21.20;99.90
4293;DHT22;2160;51.172;6.808;2022-10-22T15:06:19;21.20;99.90
4293;DHT22;2160;51.172;6.808;2022-10-22T15:08:54;21.10;99.90
4293;DHT22;2160;51.172;6.808;2022-10-22T15:11:38;21.10;99.90
4293;DHT22;2160;51.172;6.808;2022-10-22T15:14:13;21.10;99.90
4293;DHT22;2160;51.172;6.808;2022-10-22T15:16:53;21.20;99.90
4293;DHT22;2160;51.172;6.808;2022-10-22T15:19:31;21.10;99.90
4293;DHT22;2160;51.172;6.808;2022-10-22T15:22:00;20.90;99.90
4293;DHT22;2160;51.172;6.808;2022-10-22T15:24:28;20.90;99.90
4293;DHT22;2160;51.172;6.808;2022-10-22T15:26:56;21.10;99.90
4293;DHT22;2160;51.172;6.808;2022-10-22T15:37:15;20.80;99.90
4293;DHT22;2160;51.172;6.808;2022-10-22T15:40:13;20.90;99.90
4293;DHT22;2160;51.172;6.808;2022-10-22T15:42:56;20.90;99.90
4293;DHT22;2160;51.172;6.808;2022-10-22T15:45:30;20.80;99.90
4293;DHT22;2160;51.172;6.808;2022-10-22T15:47:57;20.90;99.90
4293;DHT22;2160;51.172;6.808;2022-10-22T15:50:27;21.00;99.90
4293;DHT22;2160;51.172;6.808;2022-10-22T15:52:59;21.10;99.90
4293;DHT22;2160;51.172;6.808;2022-10-22T15:55:30;21.10;99.90
4293;DHT22;2160;51.172;6.808;2022-10-22T16:01:26;21.00;99.90
4293;DHT22;2160;51.172;6.808;2022-10-22T16:04:10;20.90;99.90
4293;DHT22;2160;51.172;6.808;2022-10-22T16:06:42;20.90;99.90
4293;DHT22;2160;51.172;6.808;2022-10-22T16:09:12;21.00;99.90
4293;DHT22;2160;51.172;6.808;2022-10-22T16:11:40;21.00;99.90
4293;DHT22;2160;51.172;6.808;2022-10-22T16:14:10;21.10;99.90
4293;DHT22;2160;51.172;6.808;2022-10-22T16:16:41;21.00;99.90
4293;DHT22;2160;51.172;6.808;2022-10-22T16:19:09;21.00;99.90
4293;DHT22;2160;51.172;6.808;2022-10-22T16:21:37;21.00;99.90
4293;DHT22;2160;51.172;6.808;2022-10-22T16:24:05;21.00;99.90
4293;DHT22;2160;51.172;6.808;2022-10-22T16:26:34;20.90;99.90
4293;DHT22;2160;51.172;6.808;2022-10-22T16:29:01;20.90;99.90
4293;DHT22;2160;51.172;6.808;2022-10-22T16:31:28;20.90;99.90
4293;DHT22;2160;51.172;6.808;2022-10-22T16:33:56;20.80;99.90
4293;DHT22;2160;51.172;6.808;2022-10-22T16:36:24;20.80;99.90
4293;DHT22;2160;51.172;6.808;2022-10-22T16:38:51;20.70;99.90
4293;DHT22;2160;51.172;6.808;2022-10-22T16:41:19;20.70;99.90
4293;DHT22;2160;51.172;6.808;2022-10-22T16:43:51;20.60;99.90
4293;DHT22;2160;51.172;6.808;2022-10-22T16:46:20;20.50;99.90
4293;DHT22;2160;51.172;6.808;2022-10-22T16:48:48;20.40;99.90
4293;DHT22;2160;51.172;6.808;2022-10-22T16:51:17;20.40;99.90
4293;DHT22;2160;51.172;6.808;2022-10-22T16:53:45;20.40;99.90
4293;DHT22;2160;51.172;6.808;2022-10-22T16:56:13;20.30;99.90
4293;DHT22;2160;51.172;6.808;2022-10-22T16:58:43;20.40;99.90
4293;DHT22;2160;51.172;6.808;2022-10-22T17:01:12;20.30;99.90
4293;DHT22;2160;51.172;6.808;2022-10-22T17:03:39;20.30;99.90
4293;DHT22;2160;51.172;6.808;2022-10-22T17:06:07;20.20;99.90
4293;DHT22;2160;51.172;6.808;2022-10-22T17:08:35;20.20;99.90
4293;DHT22;2160;51.172;6.808;2022-10-22T17:11:05;20.20;99.90
4293;DHT22;2160;51.172;6.808;2022-10-22T17:13:33;20.20;99.90
4293;DHT22;2160;51.172;6.808;2022-10-22T17:16:01;20.10;99.90
4293;DHT22;2160;51.172;6.808;2022-10-22T17:18:30;20.10;99.90
4293;DHT22;2160;51.172;6.808;2022-10-22T17:20:57;20.00;99.90
4293;DHT22;2160;51.172;6.808;2022-10-22T17:23:24;19.90;99.90
4293;DHT22;2160;51.172;6.808;2022-10-22T17:25:57;19.80;99.90
4293;DHT22;2160;51.172;6.808;2022-10-22T17:28:25;19.70;99.90
4293;DHT22;2160;51.172;6.808;2022-10-22T17:31:01;19.50;99.90
4293;DHT22;2160;51.172;6.808;2022-10-22T17:33:30;19.40;99.90
4293;DHT22;2160;51.172;6.808;2022-10-22T17:35:57;19.30;99.90
4293;DHT22;2160;51.172;6.808;2022-10-22T17:38:24;19.30;99.90
4293;DHT22;2160;51.172;6.808;2022-10-22T17:40:51;19.20;99.90
4293;DHT22;2160;51.172;6.808;2022-10-22T17:43:19;19.20;99.90
4293;DHT22;2160;51.172;6.808;2022-10-22T17:45:46;19.30;99.90
4293;DHT22;2160;51.172;6.808;2022-10-22T17:48:13;19.20;99.90
4293;DHT22;2160;51.172;6.808;2022-10-22T17:50:42;19.20;99.90
4293;DHT22;2160;51.172;6.808;2022-10-22T17:53:09;19.20;99.90
4293;DHT22;2160;51.172;6.808;2022-10-22T17:55:36;19.20;99.90
4293;DHT22;2160;51.172;6.808;2022-10-22T17:58:03;19.20;99.90
4293;DHT22;2160;51.172;6.808;2022-10-22T18:00:31;19.20;99.90
4293;DHT22;2160;51.172;6.808;2022-10-22T18:02:58;19.20;99.90
4293;DHT22;2160;51.172;6.808;2022-10-22T18:05:26;19.20;99.90
4293;DHT22;2160;51.172;6.808;2022-10-22T18:07:55;19.20;99.90
4293;DHT22;2160;51.172;6.808;2022-10-22T18:10:22;19.10;99.90
4293;DHT22;2160;51.172;6.808;2022-10-22T18:12:49;19.10;99.90
4293;DHT22;2160;51.172;6.808;2022-10-22T18:15:17;19.00;99.90
4293;DHT22;2160;51.172;6.808;2022-10-22T18:17:44;19.10;99.90
4293;DHT22;2160;51.172;6.808;2022-10-22T18:20:11;19.10;99.90
4293;DHT22;2160;51.172;6.808;2022-10-22T18:22:38;19.20;99.90
4293;DHT22;2160;51.172;6.808;2022-10-22T18:25:09;19.10;99.90
4293;DHT22;2160;51.172;6.808;2022-10-22T18:27:37;19.10;99.90
4293;DHT22;2160;51.172;6.808;2022-10-22T18:30:05;19.10;99.90
4293;DHT22;2160;51.172;6.808;2022-10-22T18:32:33;19.10;99.90
4293;DHT22;2160;51.172;6.808;2022-10-22T18:35:00;19.00;99.90
4293;DHT22;2160;51.172;6.808;2022-10-22T18:37:28;19.00;99.90
4293;DHT22;2160;51.172;6.808;2022-10-22T18:39:55;19.00;99.90
4293;DHT22;2160;51.172;6.808;2022-10-22T18:42:24;19.00;99.90
4293;DHT22;2160;51.172;6.808;2022-10-22T18:44:51;18.90;99.90
4293;DHT22;2160;51.172;6.808;2022-10-22T18:47:18;18.90;99.90
4293;DHT22;2160;51.172;6.808;2022-10-22T18:49:45;18.90;99.90
4293;DHT22;2160;51.172;6.808;2022-10-22T18:52:13;18.90;99.90
4293;DHT22;2160;51.172;6.808;2022-10-22T18:54:41;18.90;99.90
4293;DHT22;2160;51.172;6.808;2022-10-22T18:57:08;18.90;99.90
4293;DHT22;2160;51.172;6.808;2022-10-22T18:59:37;18.90;99.90
4293;DHT22;2160;51.172;6.808;2022-10-22T19:02:04;18.90;99.90
4293;DHT22;2160;51.172;6.808;2022-10-22T19:04:32;18.90;99.90
4293;DHT22;2160;51.172;6.808;2022-10-22T19:07:02;18.80;99.90
4293;DHT22;2160;51.172;6.808;2022-10-22T19:09:29;18.80;99.90
4293;DHT22;2160;51.172;6.808;2022-10-22T19:11:56;18.80;99.90
4293;DHT22;2160;51.172;6.808;2022-10-22T19:14:23;18.70;99.90
4293;DHT22;2160;51.172;6.808;2022-10-22T19:16:52;18.70;99.90
4293;DHT22;2160;51.172;6.808;2022-10-22T19:19:20;18.70;99.90
4293;DHT22;2160;51.172;6.808;2022-10-22T19:21:48;18.60;99.90
4293;DHT22;2160;51.172;6.808;2022-10-22T19:24:17;18.60;99.90
4293;DHT22;2160;51.172;6.808;2022-10-22T19:26:45;18.60;99.90
4293;DHT22;2160;51.172;6.808;2022-10-22T19:29:14;18.50;99.90
4293;DHT22;2160;51.172;6.808;2022-10-22T19:31:42;18.50;99.90
4293;DHT22;2160;51.172;6.808;2022-10-22T19:34:11;18.40;99.90
4293;DHT22;2160;51.172;6.808;2022-10-22T19:36:41;18.40;99.90
4293;DHT22;2160;51.172;6.808;2022-10-22T19:39:08;18.40;99.90
4293;DHT22;2160;51.172;6.808;2022-10-22T19:41:36;18.30;99.90
4293;DHT22;2160;51.172;6.808;2022-10-22T19:44:03;18.40;99.90
4293;DHT22;2160;51.172;6.808;2022-10-22T19:46:31;18.30;99.90
4293;DHT22;2160;51.172;6.808;2022-10-22T19:48:58;18.40;99.90
4293;DHT22;2160;51.172;6.808;2022-10-22T19:51:28;18.40;99.90
4293;DHT22;2160;51.172;6.808;2022-10-22T19:53:57;18.40;99.90
4293;DHT22;2160;51.172;6.808;2022-10-22T19:56:25;18.30;99.90
4293;DHT22;2160;51.172;6.808;2022-10-22T19:58:53;18.30;99.90
4293;DHT22;2160;51.172;6.808;2022-10-22T20:01:21;18.30;99.90
4293;DHT22;2160;51.172;6.808;2022-10-22T20:03:49;18.30;99.90
4293;DHT22;2160;51.172;6.808;2022-10-22T20:06:17;18.30;99.90
4293;DHT22;2160;51.172;6.808;2022-10-22T20:08:45;18.30;99.90
4293;DHT22;2160;51.172;6.808;2022-10-22T20:11:17;18.30;99.90
4293;DHT22;2160;51.172;6.808;2022-10-22T20:13:45;18.30;99.90
4293;DHT22;2160;51.172;6.808;2022-10-22T20:16:14;18.30;99.90
4293;DHT22;2160;51.172;6.808;2022-10-22T20:18:42;18.30;99.90
4293;DHT22;2160;51.172;6.808;2022-10-22T20:21:12;18.10;99.90
4293;DHT22;2160;51.172;6.808;2022-10-22T20:23:41;18.00;99.90
4293;DHT22;2160;51.172;6.808;2022-10-22T20:26:10;18.00;99.90
4293;DHT22;2160;51.172;6.808;2022-10-22T20:28:38;17.90;99.90
4293;DHT22;2160;51.172;6.808;2022-10-22T20:31:10;17.90;99.90
4293;DHT22;2160;51.172;6.808;2022-10-22T20:33:37;17.90;99.90
4293;DHT22;2160;51.172;6.808;2022-10-22T20:36:07;17.90;99.90
4293;DHT22;2160;51.172;6.808;2022-10-22T20:38:34;17.80;99.90